Time;durP1;ratioP1;P1;durP2;ratioP2;P2;SDS_P1;SDS_P2;PMS_P1;PMS_P2;Temp;Humidity;BMP_temperature;BMP_pressure;BME280_temperature;BME280_humidity;BME280_pressure;Samples;Min_cycle;Max_cycle;Signal;HPM_P1;HPM_P2
2024/01/04 00:00:55;;;;;;;5.55;1.95;;;;;;;10.39;71.86;99460.97;5140901;27;20468;-74
2024/01/04 00:03:25;;;;;;;6.90;2.60;;;;;;;10.34;72.20;99463.63;5134738;27;20104;-74
2024/01/04 00:05:53;;;;;;;9.45;3.15;;;;;;;10.35;72.18;99473.28;5142179;27;20039;-73
2024/01/04 00:08:21;;;;;;;4.90;1.98;;;;;;;10.35;71.96;99469.78;5138700;27;20450;-74
2024/01/04 00:10:49;;;;;;;8.23;2.30;;;;;;;10.35;72.10;99473.28;5143255;27;20043;-74
2024/01/04 00:13:17;;;;;;;11.95;2.25;;;;;;;10.37;71.98;99481.91;5127387;27;20064;-74
2024/01/04 00:15:45;;;;;;;5.13;2.10;;;;;;;10.36;72.16;99488.34;5142252;27;20036;-74
2024/01/04 00:18:14;;;;;;;6.30;2.50;;;;;;;10.36;72.17;99501.75;5114612;27;20070;-74
2024/01/04 00:20:44;;;;;;;7.53;2.03;;;;;;;10.36;72.17;99498.28;5147512;27;20047;-73
2024/01/04 00:23:11;;;;;;;7.75;2.45;;;;;;;10.32;72.17;99503.34;5138401;27;20047;-74
2024/01/04 00:25:39;;;;;;;9.57;3.53;;;;;;;10.33;72.26;99504.16;5134593;27;20039;-75
2024/01/04 00:28:07;;;;;;;8.15;2.15;;;;;;;10.34;72.14;99508.44;5155062;27;20054;-74
2024/01/04 00:30:35;;;;;;;7.22;3.13;;;;;;;10.31;72.18;99519.69;5130340;27;20070;-75
2024/01/04 00:33:06;;;;;;;5.55;2.10;;;;;;;10.28;72.42;99528.25;5150866;27;20069;-74
2024/01/04 00:35:35;;;;;;;5.38;2.00;;;;;;;10.30;72.47;99539.56;5134807;27;20085;-74
2024/01/04 00:38:03;;;;;;;7.68;2.65;;;;;;;10.26;72.76;99541.13;5141401;27;20166;-74
2024/01/04 00:40:32;;;;;;;9.38;2.00;;;;;;;10.28;72.55;99555.13;5145127;27;20076;-74
2024/01/04 00:43:00;;;;;;;8.05;1.88;;;;;;;10.27;72.66;99573.09;5144629;27;20047;-74
2024/01/04 00:45:28;;;;;;;7.78;2.10;;;;;;;10.26;72.77;99560.72;5138492;27;20081;-73
2024/01/04 00:47:56;;;;;;;9.30;2.30;;;;;;;10.23;72.56;99574.66;5135320;27;20051;-74
2024/01/04 00:50:24;;;;;;;8.00;1.90;;;;;;;10.22;72.81;99572.22;5143199;27;20048;-72
2024/01/04 00:52:53;;;;;;;6.70;2.25;;;;;;;10.21;72.77;99573.28;5144846;27;20061;-73
2024/01/04 00:55:32;;;;;;;5.00;2.10;;;;;;;10.19;72.44;99592.31;5141744;27;20039;-74
2024/01/04 00:58:02;;;;;;;3.67;1.70;;;;;;;10.18;72.70;99604.09;5137426;27;20131;-73
2024/01/04 01:00:30;;;;;;;4.90;1.83;;;;;;;10.18;72.61;99601.41;5133634;27;20083;-73
2024/01/04 01:02:58;;;;;;;7.10;1.83;;;;;;;10.20;72.46;99606.56;5126041;27;20043;-74
2024/01/04 01:05:26;;;;;;;4.78;1.88;;;;;;;10.21;72.58;99613.56;5129206;27;20047;-73
2024/01/04 01:07:55;;;;;;;4.68;1.60;;;;;;;10.21;72.61;99610.88;5148875;27;20054;-74
2024/01/04 01:10:23;;;;;;;4.97;1.58;;;;;;;10.10;72.26;99604.53;5144580;27;20066;-72
2024/01/04 01:12:51;;;;;;;8.32;1.65;;;;;;;10.19;72.51;99624.53;5132946;27;20047;-72
2024/01/04 01:15:18;;;;;;;6.03;1.75;;;;;;;10.18;72.56;99624.75;5134650;27;20043;-74
2024/01/04 01:17:46;;;;;;;5.28;2.22;;;;;;;10.16;72.32;99626.88;5141760;27;20122;-73
2024/01/04 01:20:14;;;;;;;5.57;2.00;;;;;;;10.16;72.61;99634.94;5098745;27;20054;-72
2024/01/04 01:22:42;;;;;;;8.73;2.60;;;;;;;10.17;72.49;99636.56;5149930;27;20084;-73
2024/01/04 01:25:11;;;;;;;9.32;2.00;;;;;;;10.16;72.42;99648.38;5163104;27;20103;-72
2024/01/04 01:27:39;;;;;;;8.60;1.95;;;;;;;10.14;72.48;99662.03;5146474;27;20068;-73
2024/01/04 01:30:08;;;;;;;5.80;2.22;;;;;;;10.14;72.55;99664.72;5150132;27;20095;-72
2024/01/04 01:32:36;;;;;;;9.82;2.25;;;;;;;10.15;72.37;99662.84;5138422;27;20051;-73
2024/01/04 01:35:05;;;;;;;8.48;1.65;;;;;;;10.17;72.44;99666.91;5150979;27;20039;-75
2024/01/04 01:37:32;;;;;;;5.35;2.83;;;;;;;10.17;72.46;99669.59;5143315;27;20051;-72
2024/01/04 01:40:00;;;;;;;5.85;2.55;;;;;;;10.18;72.25;99675.78;5129458;27;20105;-73
2024/01/04 01:42:29;;;;;;;11.65;2.30;;;;;;;10.17;72.22;99679.53;5143790;27;20051;-74
2024/01/04 01:44:57;;;;;;;5.88;1.67;;;;;;;10.16;72.31;99686.75;5154793;27;20057;-73
2024/01/04 01:47:25;;;;;;;8.40;1.73;;;;;;;10.17;72.24;99691.06;5134000;27;20065;-74
2024/01/04 01:49:52;;;;;;;7.20;1.92;;;;;;;10.18;72.31;99698.06;5132999;27;20044;-73
2024/01/04 01:52:21;;;;;;;4.78;1.70;;;;;;;10.18;72.14;99706.13;5141190;27;20055;-74
2024/01/04 01:54:49;;;;;;;7.68;2.33;;;;;;;10.19;72.16;99706.94;5136934;27;20043;-73
2024/01/04 01:57:18;;;;;;;9.32;2.05;;;;;;;10.18;72.35;99705.31;5140218;27;20047;-73
2024/01/04 01:59:47;;;;;;;7.15;1.70;;;;;;;10.20;72.17;99716.66;5128137;27;20080;-73
2024/01/04 02:02:16;;;;;;;9.57;2.47;;;;;;;10.17;72.16;99723.28;5134315;27;20494;-73
2024/01/04 02:04:44;;;;;;;8.73;1.65;;;;;;;10.19;72.00;99726.53;5159769;27;20043;-74
2024/01/04 02:07:12;;;;;;;5.95;1.40;;;;;;;10.19;72.16;99725.72;5144630;27;20059;-74
2024/01/04 02:09:40;;;;;;;3.47;1.52;;;;;;;10.19;72.06;99737.28;5128037;27;20150;-73
2024/01/04 02:12:12;;;;;;;9.05;2.53;;;;;;;10.21;72.08;99737.06;5142722;27;20051;-73
2024/01/04 02:14:41;;;;;;;6.82;1.73;;;;;;;10.22;72.14;99738.69;5151259;27;20038;-73
2024/01/04 02:17:10;;;;;;;5.35;1.83;;;;;;;10.20;72.24;99743.50;5115405;27;20051;-73
2024/01/04 02:19:39;;;;;;;9.98;3.10;;;;;;;10.19;72.19;99742.66;5126040;27;20051;-72
2024/01/04 02:22:07;;;;;;;7.03;2.08;;;;;;;10.20;72.11;99748.88;5134427;27;20057;-72
2024/01/04 02:24:36;;;;;;;11.73;3.65;;;;;;;10.21;72.03;99753.19;5127666;27;20065;-73
2024/01/04 02:27:04;;;;;;;8.25;1.88;;;;;;;10.20;72.08;99757.75;5149431;27;20047;-73
2024/01/04 02:29:32;;;;;;;7.03;2.30;;;;;;;10.19;72.16;99764.13;5142221;27;20059;-74
2024/01/04 02:32:00;;;;;;;6.80;2.10;;;;;;;10.20;72.11;99759.59;5132290;27;20079;-74
2024/01/04 02:34:27;;;;;;;7.57;2.45;;;;;;;10.17;72.21;99768.94;5138672;27;20047;-73
2024/01/04 02:36:55;;;;;;;9.40;1.92;;;;;;;10.20;72.00;99767.66;5135793;27;20063;-73
2024/01/04 02:39:23;;;;;;;6.90;2.00;;;;;;;10.19;72.09;99769.50;5139934;27;20043;-73
2024/01/04 02:41:53;;;;;;;7.68;2.17;;;;;;;10.20;71.89;99763.09;5143683;27;20055;-74
2024/01/04 02:44:20;;;;;;;10.05;2.35;;;;;;;10.20;72.15;99770.34;5150577;27;20054;-73
2024/01/04 02:46:48;;;;;;;10.10;2.47;;;;;;;10.20;71.90;99789.97;5116254;27;20049;-72
2024/01/04 02:49:16;;;;;;;9.35;3.78;;;;;;;10.17;71.75;99819.13;5154966;27;20118;-73
2024/01/04 02:51:45;;;;;;;5.38;2.13;;;;;;;10.15;71.70;99824.75;5128214;27;20057;-73
2024/01/04 02:54:12;;;;;;;7.50;1.90;;;;;;;10.06;71.69;99807.41;5145590;27;20092;-73
2024/01/04 02:56:39;;;;;;;6.53;1.80;;;;;;;10.04;71.97;99809.53;5146413;27;20096;-74
2024/01/04 02:59:09;;;;;;;6.05;2.08;;;;;;;10.03;71.53;99802.53;5145430;27;20073;-73
2024/01/04 03:01:36;;;;;;;4.18;2.50;;;;;;;10.04;71.59;99798.78;5124119;27;20072;-74
2024/01/04 03:04:04;;;;;;;4.97;1.77;;;;;;;10.04;71.39;99796.94;5134145;27;20123;-73
2024/01/04 03:06:33;;;;;;;7.03;1.73;;;;;;;10.06;71.55;99804.72;5144304;27;20071;-74
2024/01/04 03:09:01;;;;;;;4.85;1.60;;;;;;;10.06;71.68;99805.56;5093581;27;20051;-74
2024/01/04 03:11:29;;;;;;;6.07;1.50;;;;;;;10.06;71.64;99818.97;5128822;27;20043;-73
2024/01/04 03:13:56;;;;;;;5.10;1.88;;;;;;;10.07;71.79;99822.47;5124608;27;20105;-74
2024/01/04 03:16:25;;;;;;;3.88;1.60;;;;;;;10.07;71.74;99823.28;5128542;27;20055;-72
2024/01/04 03:18:53;;;;;;;6.68;2.00;;;;;;;10.07;71.70;99828.66;5161268;27;20046;-73
2024/01/04 03:21:22;;;;;;;4.45;1.85;;;;;;;10.08;71.85;99835.66;5097308;27;20051;-73
2024/01/04 03:23:49;;;;;;;6.07;2.08;;;;;;;10.07;71.76;99827.84;5141273;27;20086;-73
2024/01/04 03:26:17;;;;;;;5.90;1.85;;;;;;;10.07;72.03;99830.53;5137261;27;20489;-71
2024/01/04 03:28:45;;;;;;;4.43;1.35;;;;;;;10.08;71.78;99835.66;5150055;27;20046;-72
2024/01/04 03:31:14;;;;;;;4.32;1.38;;;;;;;10.07;72.10;99839.38;5146506;27;20089;-73
2024/01/04 03:33:43;;;;;;;3.63;1.50;;;;;;;10.08;71.96;99837.53;5143315;27;20103;-73
2024/01/04 03:36:14;;;;;;;5.22;1.58;;;;;;;10.07;71.99;99844.75;5148810;27;20050;-73
2024/01/04 03:38:42;;;;;;;5.43;1.98;;;;;;;10.07;71.97;99846.63;5152471;27;20053;-73
2024/01/04 03:41:10;;;;;;;5.30;1.52;;;;;;;10.07;71.97;99854.69;5138518;27;20111;-73
2024/01/04 03:43:38;;;;;;;6.43;1.98;;;;;;;10.07;71.99;99846.63;5136649;27;20070;-73
2024/01/04 03:46:06;;;;;;;6.68;2.10;;;;;;;10.07;72.00;99852.81;5153036;27;20039;-73
2024/01/04 03:48:34;;;;;;;5.93;2.00;;;;;;;10.06;72.08;99861.09;5152678;27;20042;-73
2024/01/04 03:51:04;;;;;;;4.80;1.80;;;;;;;10.05;72.14;99865.66;5157156;27;20111;-74
2024/01/04 03:53:31;;;;;;;5.28;1.90;;;;;;;10.04;72.31;99869.41;5146101;27;20047;-72
2024/01/04 03:55:59;;;;;;;8.90;2.00;;;;;;;10.05;72.04;99862.16;5148833;27;20035;-73
2024/01/04 03:58:27;;;;;;;8.82;2.30;;;;;;;10.05;71.91;99868.34;5155132;27;20051;-73
2024/01/04 04:00:55;;;;;;;8.45;2.97;;;;;;;10.05;72.00;99867.53;5131705;27;20047;-72
2024/01/04 04:03:23;;;;;;;7.85;2.17;;;;;;;10.04;72.26;99861.34;5134805;27;20051;-72
2024/01/04 04:05:51;;;;;;;4.10;1.80;;;;;;;10.05;72.25;99868.34;5141256;27;20043;-74
2024/01/04 04:08:20;;;;;;;6.60;2.40;;;;;;;10.05;72.40;99867.53;5136132;27;20424;-73
2024/01/04 04:10:48;;;;;;;9.88;3.17;;;;;;;10.05;72.26;99880.97;5141640;27;20053;-72
2024/01/04 04:13:17;;;;;;;10.15;4.22;;;;;;;10.05;72.37;99883.63;5158398;27;20464;-74
2024/01/04 04:15:45;;;;;;;5.05;2.22;;;;;;;10.04;72.31;99877.47;5145317;27;20044;-74
2024/01/04 04:18:13;;;;;;;6.60;2.17;;;;;;;9.99;72.61;99877.38;5141691;27;20263;-73
2024/01/04 04:20:41;;;;;;;4.55;2.10;;;;;;;10.05;72.40;99889.00;5149371;27;20043;-73
2024/01/04 04:23:09;;;;;;;8.50;2.13;;;;;;;10.04;72.34;99888.19;5157358;27;20047;-74
2024/01/04 04:25:38;;;;;;;7.03;2.30;;;;;;;10.04;72.40;99888.19;5145300;27;20066;-73
2024/01/04 04:28:06;;;;;;;6.65;2.63;;;;;;;10.04;72.40;99898.94;5148972;27;20068;-73
2024/01/04 04:30:34;;;;;;;6.60;2.55;;;;;;;10.00;72.46;99899.66;5133696;27;20044;-73
2024/01/04 04:33:02;;;;;;;8.57;3.00;;;;;;;10.04;72.58;99915.03;5128668;27;20039;-73
2024/01/04 04:35:30;;;;;;;7.95;3.15;;;;;;;10.01;72.53;99909.34;5080844;27;20505;-73
2024/01/04 04:37:58;;;;;;;7.30;2.85;;;;;;;10.05;72.61;99918.53;5155601;27;20042;-73
2024/01/04 04:40:26;;;;;;;8.80;2.75;;;;;;;10.05;72.62;99923.91;5127238;27;20080;-73
2024/01/04 04:42:55;;;;;;;8.02;2.95;;;;;;;10.05;72.75;99924.72;5136372;27;20073;-73
2024/01/04 04:45:23;;;;;;;8.32;3.10;;;;;;;10.05;72.70;99931.97;5084271;27;20160;-72
2024/01/04 04:47:51;;;;;;;8.82;3.00;;;;;;;10.05;72.97;99934.66;5160785;27;20062;-73
2024/01/04 04:50:19;;;;;;;9.25;3.03;;;;;;;10.05;72.60;99931.97;5156685;27;20104;-73
2024/01/04 04:52:46;;;;;;;10.15;3.33;;;;;;;10.04;72.63;99936.50;5152212;27;20056;-74
2024/01/04 04:55:14;;;;;;;8.27;2.88;;;;;;;10.05;72.76;99932.78;5138503;27;20484;-74
2024/01/04 04:57:42;;;;;;;6.85;3.00;;;;;;;10.04;72.85;99939.19;5143816;27;20039;-73
2024/01/04 05:00:13;;;;;;;5.65;3.00;;;;;;;10.04;72.83;99946.44;5145735;27;20428;-74
2024/01/04 05:02:40;;;;;;;8.45;2.95;;;;;;;10.01;72.83;99947.72;5129166;27;20047;-72
2024/01/04 05:05:08;;;;;;;6.07;3.05;;;;;;;10.02;72.80;99945.88;5159674;27;20046;-73
2024/01/04 05:07:36;;;;;;;6.82;3.45;;;;;;;10.01;72.71;99958.47;5159665;27;20055;-74
2024/01/04 05:10:05;;;;;;;8.80;3.00;;;;;;;10.01;72.54;99953.09;5164310;27;20047;-73
2024/01/04 05:12:33;;;;;;;5.28;2.55;;;;;;;10.00;72.70;99954.16;5138913;27;20065;-73
2024/01/04 05:15:01;;;;;;;5.30;2.40;;;;;;;10.00;72.49;99945.28;5148701;27;20069;-74
2024/01/04 05:17:31;;;;;;;10.80;2.78;;;;;;;9.99;72.69;99949.84;5155474;27;20034;-73
2024/01/04 05:19:58;;;;;;;8.13;2.38;;;;;;;10.00;72.63;99956.84;5156455;27;20459;-73
2024/01/04 05:22:26;;;;;;;4.35;2.30;;;;;;;9.98;72.69;99964.31;5156997;27;20042;-73
2024/01/04 05:24:54;;;;;;;6.13;2.95;;;;;;;9.98;72.50;99963.50;5133670;27;20060;-74
2024/01/04 05:27:22;;;;;;;8.55;2.35;;;;;;;9.98;72.38;99971.56;5144972;27;20036;-74
2024/01/04 05:29:50;;;;;;;3.65;2.00;;;;;;;9.95;72.39;99962.13;5148634;27;20485;-74
2024/01/04 05:32:18;;;;;;;5.97;2.17;;;;;;;9.95;72.42;99975.53;5147280;27;20055;-72
2024/01/04 05:34:47;;;;;;;5.22;2.88;;;;;;;9.93;72.35;99980.31;5146559;27;20465;-74
2024/01/04 05:37:15;;;;;;;2.90;1.70;;;;;;;9.95;72.42;99982.78;5128373;27;20092;-74
2024/01/04 05:39:43;;;;;;;4.47;1.70;;;;;;;9.93;72.10;99991.06;5149212;27;20054;-74
2024/01/04 05:42:11;;;;;;;4.15;1.83;;;;;;;9.94;72.52;99992.69;5151997;27;20069;-74
2024/01/04 05:44:39;;;;;;;4.07;1.60;;;;;;;9.93;72.28;99993.75;5127776;27;20074;-74
2024/01/04 05:47:07;;;;;;;4.13;1.60;;;;;;;9.90;72.15;99991.53;5158233;27;20051;-74
2024/01/04 05:49:34;;;;;;;2.80;1.42;;;;;;;9.92;72.39;99999.34;5138634;27;20046;-74
2024/01/04 05:52:05;;;;;;;2.80;1.30;;;;;;;9.92;72.26;99996.66;5155981;27;20053;-74
2024/01/04 05:54:32;;;;;;;1.63;1.23;;;;;;;9.90;72.29;99996.91;5150180;27;20044;-74
2024/01/04 05:57:00;;;;;;;2.45;1.52;;;;;;;9.85;72.41;99996.81;5144282;27;20047;-73
2024/01/04 05:59:28;;;;;;;4.43;1.38;;;;;;;9.90;72.43;100007.63;5131733;27;20475;-74
2024/01/04 06:01:56;;;;;;;4.18;1.60;;;;;;;9.90;72.06;100013.00;5136634;27;20043;-72
2024/01/04 06:04:24;;;;;;;3.15;1.45;;;;;;;9.90;72.20;100021.06;5139329;27;20047;-77
2024/01/04 06:06:53;;;;;;;4.40;1.50;;;;;;;9.90;72.13;100022.94;5142378;27;20039;-75
2024/01/04 06:09:22;;;;;;;2.67;1.42;;;;;;;9.90;71.99;100028.28;5150852;27;20074;-75
2024/01/04 06:11:51;;;;;;;3.08;1.52;;;;;;;9.90;72.02;100025.63;5160318;27;20079;-75
2024/01/04 06:14:19;;;;;;;2.50;1.15;;;;;;;9.87;72.41;100026.09;5146679;27;20046;-78
2024/01/04 06:16:47;;;;;;;3.08;1.38;;;;;;;9.88;72.42;100033.91;5133729;27;20075;-69
2024/01/04 06:19:15;;;;;;;2.22;1.20;;;;;;;9.89;72.03;100048.94;5148535;27;20406;-70
2024/01/04 06:21:43;;;;;;;3.95;1.40;;;;;;;9.88;72.08;100050.00;5135288;27;20525;-70
2024/01/04 06:24:11;;;;;;;9.50;2.22;;;;;;;9.90;72.39;100055.13;5138541;27;20082;-72
2024/01/04 06:26:40;;;;;;;5.82;1.58;;;;;;;9.89;72.31;100056.19;5142835;27;20446;-72
2024/01/04 06:29:08;;;;;;;4.47;1.80;;;;;;;9.88;72.42;100052.69;5140269;27;20085;-72
2024/01/04 06:31:36;;;;;;;2.13;1.30;;;;;;;9.88;72.22;100055.38;5134506;27;20481;-71
2024/01/04 06:34:04;;;;;;;3.22;1.40;;;;;;;9.86;72.48;100054.78;5149666;27;20115;-69
2024/01/04 06:36:32;;;;;;;4.78;1.45;;;;;;;9.87;72.19;100059.09;5120965;27;20140;-67
2024/01/04 06:38:59;;;;;;;2.17;1.20;;;;;;;9.87;72.59;100066.34;5146015;27;20057;-73
2024/01/04 06:41:29;;;;;;;4.43;1.42;;;;;;;9.87;72.35;100066.34;5141931;27;20069;-72
2024/01/04 06:43:59;;;;;;;2.72;1.50;;;;;;;9.86;72.27;100073.56;5137654;27;20054;-76
2024/01/04 06:46:27;;;;;;;5.75;1.65;;;;;;;9.85;72.56;100069.25;5135337;27;20056;-65
2024/01/04 06:48:55;;;;;;;4.70;1.40;;;;;;;9.86;72.17;100072.75;5128516;27;20047;-68
2024/01/04 06:51:23;;;;;;;2.88;1.27;;;;;;;9.85;72.29;100076.50;5121637;27;20526;-69
2024/01/04 06:53:51;;;;;;;3.13;1.50;;;;;;;9.85;72.30;100084.56;5134107;27;20146;-71
2024/01/04 06:56:19;;;;;;;3.10;1.73;;;;;;;9.85;72.66;100093.41;5124825;27;20047;-69
2024/01/04 06:58:47;;;;;;;2.97;1.13;;;;;;;9.86;72.33;100086.19;5141680;27;20043;-77
2024/01/04 07:01:19;;;;;;;2.97;1.10;;;;;;;9.85;72.47;100096.09;5144601;27;20055;-72
2024/01/04 07:03:47;;;;;;;3.63;1.27;;;;;;;9.86;72.47;100096.91;4787101;27;10000001;-72
2024/01/04 07:06:15;;;;;;;4.03;1.40;;;;;;;9.86;72.13;100105.78;5140104;27;20062;-75
2024/01/04 07:08:43;;;;;;;3.47;1.40;;;;;;;9.86;72.42;100107.66;5144771;27;20055;-75
2024/01/04 07:11:11;;;;;;;4.50;1.70;;;;;;;9.86;72.11;100103.09;5132320;27;20154;-71
2024/01/04 07:13:39;;;;;;;4.35;1.52;;;;;;;9.88;72.26;100110.91;5152429;27;20143;-72
2024/01/04 07:16:07;;;;;;;3.78;1.30;;;;;;;9.87;72.21;100109.28;5107708;27;20090;-71
2024/01/04 07:18:36;;;;;;;2.63;1.27;;;;;;;9.87;72.34;100120.03;5151744;27;20060;-68
2024/01/04 07:21:05;;;;;;;7.28;2.60;;;;;;;9.87;73.07;100128.06;5139453;27;20048;-74
2024/01/04 07:23:33;;;;;;;4.57;1.77;;;;;;;9.85;73.16;100127.50;5137550;27;20051;-73
2024/01/04 07:26:01;;;;;;;3.63;1.70;;;;;;;9.84;72.76;100124.00;5128617;28;20049;-73
2024/01/04 07:28:29;;;;;;;6.07;2.15;;;;;;;9.85;72.81;100127.50;5130777;28;20104;-73
2024/01/04 07:30:57;;;;;;;2.88;2.00;;;;;;;9.86;72.85;100123.75;5131555;28;20062;-74
2024/01/04 07:33:26;;;;;;;5.28;1.88;;;;;;;9.85;72.51;100132.84;5137460;27;20043;-72
2024/01/04 07:35:55;;;;;;;7.13;2.67;;;;;;;9.84;72.58;100128.53;5121180;28;20062;-72
2024/01/04 07:38:23;;;;;;;7.32;2.72;;;;;;;9.84;73.02;100126.66;5124674;27;20073;-73
2024/01/04 07:40:51;;;;;;;5.00;2.00;;;;;;;9.84;72.91;100141.97;5107059;27;20047;-74
2024/01/04 07:43:20;;;;;;;4.28;1.92;;;;;;;9.83;72.84;100140.31;5142040;27;20058;-73
2024/01/04 07:45:47;;;;;;;5.32;2.05;;;;;;;9.83;72.72;100137.63;5129863;27;20050;-74
2024/01/04 07:48:16;;;;;;;5.22;2.25;;;;;;;9.82;72.70;100146.75;5128001;27;20468;-73
2024/01/04 07:50:44;;;;;;;6.50;2.88;;;;;;;9.82;72.95;100157.47;5126032;27;20047;-72
2024/01/04 07:53:13;;;;;;;8.18;2.47;;;;;;;9.73;72.99;100140.91;5136171;27;20130;-73
2024/01/04 07:55:41;;;;;;;4.25;2.55;;;;;;;9.83;73.12;100167.16;5141546;27;20043;-73
2024/01/04 07:58:09;;;;;;;7.78;1.95;;;;;;;9.82;73.00;100165.53;5143603;27;20043;-73
2024/01/04 08:00:37;;;;;;;6.80;2.72;;;;;;;9.81;73.02;100172.75;5148694;27;20116;-74
2024/01/04 08:03:05;;;;;;;5.47;2.58;;;;;;;9.81;73.11;100188.03;5132521;27;20520;-74
2024/01/04 08:05:33;;;;;;;5.05;2.10;;;;;;;9.79;72.95;100181.03;5129984;27;20059;-74
2024/01/04 08:08:01;;;;;;;3.88;2.35;;;;;;;9.76;72.88;100184.19;5130875;27;20051;-74
2024/01/04 08:10:31;;;;;;;5.90;2.30;;;;;;;9.79;73.14;100186.41;5128782;27;20054;-74
2024/01/04 08:13:01;;;;;;;4.32;2.00;;;;;;;9.69;73.19;100177.31;5131855;27;20060;-74
2024/01/04 08:15:33;;;;;;;5.93;2.33;;;;;;;9.78;73.05;100198.19;5140027;27;20051;-72
2024/01/04 08:18:01;;;;;;;5.80;1.92;;;;;;;9.77;73.26;100199.25;5146335;27;20234;-72
2024/01/04 08:20:33;;;;;;;6.22;2.17;;;;;;;9.76;72.88;100205.66;5132169;27;20417;-73
2024/01/04 08:23:01;;;;;;;5.43;2.60;;;;;;;9.76;73.08;100208.34;5129586;27;20808;-72
2024/01/04 08:25:30;;;;;;;7.20;2.20;;;;;;;9.75;73.18;100217.44;5152701;27;20103;-68
2024/01/04 08:27:58;;;;;;;5.32;2.15;;;;;;;9.75;73.14;100209.41;5135705;27;20054;-72
2024/01/04 08:30:26;;;;;;;3.80;1.98;;;;;;;9.75;73.20;100219.31;5140265;27;20482;-72
2024/01/04 08:32:54;;;;;;;5.75;2.20;;;;;;;9.75;72.80;100216.63;5136072;27;20642;-73
2024/01/04 08:35:22;;;;;;;8.55;2.25;;;;;;;9.74;72.95;100221.19;5139369;27;20065;-73
2024/01/04 08:37:50;;;;;;;6.97;2.80;;;;;;;9.73;73.12;100219.53;5120284;27;20130;-72
2024/01/04 08:40:18;;;;;;;6.28;1.60;;;;;;;9.74;73.15;100212.31;5139806;27;20519;-72
2024/01/04 08:42:47;;;;;;;5.20;2.15;;;;;;;9.74;73.43;100206.94;5124811;27;20487;-72
2024/01/04 08:45:15;;;;;;;5.15;1.75;;;;;;;9.73;73.58;100208.81;5121640;27;20061;-73
2024/01/04 08:47:43;;;;;;;4.70;1.88;;;;;;;9.74;73.19;100210.44;5136440;27;20050;-76
2024/01/04 08:50:11;;;;;;;7.68;2.45;;;;;;;9.72;73.58;100215.22;5125829;27;20154;-77
2024/01/04 08:52:39;;;;;;;3.88;2.45;;;;;;;9.68;73.43;100216.72;5137820;27;20146;-76
2024/01/04 08:55:08;;;;;;;5.80;2.20;;;;;;;9.73;73.19;100230.28;5137792;27;20558;-76
2024/01/04 08:57:36;;;;;;;4.65;1.98;;;;;;;9.73;73.55;100222.22;5134411;27;20047;-76
2024/01/04 09:00:07;;;;;;;5.10;1.98;;;;;;;9.72;73.29;100227.81;5135740;27;20054;-75
2024/01/04 09:02:35;;;;;;;6.95;2.45;;;;;;;9.75;73.68;100238.09;5137659;27;20130;-77
2024/01/04 09:05:03;;;;;;;4.28;2.63;;;;;;;9.85;73.10;100232.97;5132603;27;20092;-76
2024/01/04 09:07:31;;;;;;;4.88;2.17;;;;;;;10.01;72.60;100234.16;5140611;27;20487;-76
2024/01/04 09:09:59;;;;;;;5.15;1.73;;;;;;;10.12;72.02;100227.97;5139671;27;20104;-77
2024/01/04 09:12:27;;;;;;;4.88;2.33;;;;;;;10.37;71.48;100233.13;5137960;27;20107;-78
2024/01/04 09:14:55;;;;;;;8.48;3.00;;;;;;;10.54;70.77;100233.19;5128442;27;20116;-78
2024/01/04 09:17:25;;;;;;;6.55;2.20;;;;;;;10.72;70.11;100236.53;5142192;27;20198;-77
2024/01/04 09:19:53;;;;;;;4.97;2.63;;;;;;;10.89;69.61;100241.97;5141537;27;20051;-78
2024/01/04 09:22:21;;;;;;;6.15;2.00;;;;;;;11.06;68.90;100233.97;5138335;27;20058;-77
2024/01/04 09:24:49;;;;;;;3.88;1.70;;;;;;;11.18;68.30;100242.00;5145226;27;20053;-74
2024/01/04 09:27:17;;;;;;;4.05;1.73;;;;;;;11.30;67.85;100240.06;5114902;27;20054;-75
2024/01/04 09:29:47;;;;;;;3.72;1.70;;;;;;;11.42;67.34;100248.88;5140558;27;20043;-76
2024/01/04 09:32:15;;;;;;;4.50;1.80;;;;;;;11.47;66.94;100262.44;5122261;27;20048;-74
2024/01/04 09:34:44;;;;;;;4.68;1.85;;;;;;;11.48;66.92;100268.63;5140972;27;20055;-70
2024/01/04 09:37:12;;;;;;;2.58;1.50;;;;;;;11.54;66.82;100268.47;5137063;27;20114;-73
2024/01/04 09:39:40;;;;;;;3.00;1.38;;;;;;;11.58;66.49;100263.44;5139978;27;20144;-74
2024/01/04 09:42:09;;;;;;;3.88;1.40;;;;;;;11.61;66.49;100274.53;5124104;27;20059;-71
2024/01/04 09:44:37;;;;;;;2.45;1.58;;;;;;;11.63;66.33;100282.34;5135437;27;20421;-75
2024/01/04 09:47:08;;;;;;;1.75;1.20;;;;;;;11.63;66.68;100279.66;5130695;27;20079;-75
2024/01/04 09:49:38;;;;;;;5.43;1.40;;;;;;;11.68;66.13;100287.84;5142138;27;20051;-76
2024/01/04 09:52:09;;;;;;;4.00;1.60;;;;;;;11.70;66.23;100288.41;5135217;27;20084;-75
2024/01/04 09:54:40;;;;;;;4.32;1.77;;;;;;;11.73;66.31;100291.44;5104247;27;20418;-74
2024/01/04 09:57:10;;;;;;;4.68;1.40;;;;;;;11.76;66.41;100298.19;5111705;27;20466;-76
2024/01/04 09:59:38;;;;;;;3.80;1.48;;;;;;;11.80;65.98;100301.25;5109409;27;20054;-74
2024/01/04 10:02:12;;;;;;;4.03;1.70;;;;;;;11.79;66.34;100300.44;5120629;27;20043;-74
2024/01/04 10:04:43;;;;;;;1.25;1.10;;;;;;;11.80;65.97;100290.50;5144388;27;20051;-75
2024/01/04 10:07:22;;;;;;;3.63;1.40;;;;;;;11.81;65.93;100308.28;5134588;27;20055;-75
2024/01/04 10:09:56;;;;;;;1.83;1.08;;;;;;;11.70;66.18;100313.44;5121853;27;20049;-73
2024/01/04 10:12:32;;;;;;;2.72;1.23;;;;;;;11.53;66.70;100309.09;5144091;27;20562;-74
2024/01/04 10:15:00;;;;;;;5.28;1.20;;;;;;;11.32;67.15;100311.41;5134868;27;20182;-74
2024/01/04 10:17:28;;;;;;;1.75;1.10;;;;;;;11.14;67.84;100310.75;5143573;27;20104;-75
2024/01/04 10:19:57;;;;;;;3.15;1.40;;;;;;;11.00;68.31;100313.72;5125447;27;20426;-73
2024/01/04 10:22:27;;;;;;;6.05;1.58;;;;;;;10.89;68.85;100319.94;5142055;27;20123;-73
2024/01/04 10:24:54;;;;;;;4.45;1.65;;;;;;;10.81;69.13;100322.16;5143995;27;20050;-73
2024/01/04 10:27:23;;;;;;;3.88;1.42;;;;;;;10.72;69.77;100327.91;5136873;27;20058;-76
2024/01/04 10:29:51;;;;;;;3.63;2.38;;;;;;;10.66;69.88;100322.66;5140398;27;20043;-72
2024/01/04 10:32:19;;;;;;;3.45;1.92;;;;;;;10.69;69.91;100327.56;5142858;27;20142;-72
2024/01/04 10:34:47;;;;;;;4.63;1.30;;;;;;;10.84;69.62;100327.06;5140870;27;20495;-73
2024/01/04 10:37:17;;;;;;;3.60;1.35;;;;;;;11.00;68.53;100326.34;5144335;27;20146;-72
2024/01/04 10:39:58;;;;;;;4.30;1.10;;;;;;;11.17;68.11;100338.00;5138016;27;20119;-72
2024/01/04 10:42:26;;;;;;;1.55;0.98;;;;;;;11.21;67.73;100324.88;5020150;28;20054;-73
2024/01/04 10:44:54;;;;;;;4.10;1.27;;;;;;;11.12;67.65;100321.75;5020568;28;20053;-73
2024/01/04 10:47:23;;;;;;;2.10;0.90;;;;;;;11.05;68.06;100338.03;5020207;28;20071;-73
2024/01/04 10:49:58;;;;;;;1.30;0.82;;;;;;;10.94;68.21;100348.81;5021351;28;20058;-73
2024/01/04 10:52:31;;;;;;;3.55;1.20;;;;;;;10.81;68.88;100343.66;5032431;28;20132;-75
2024/01/04 10:55:03;;;;;;;1.13;1.02;;;;;;;10.73;69.17;100350.22;5020204;28;20046;-74
2024/01/04 10:57:33;;;;;;;2.55;1.13;;;;;;;10.68;68.96;100348.25;5019724;28;20057;-75
2024/01/04 11:00:06;;;;;;;1.63;1.00;;;;;;;10.63;69.58;100350.81;5019961;28;20046;-74
2024/01/04 11:02:35;;;;;;;0.85;0.77;;;;;;;10.59;69.73;100343.47;5018575;28;20497;-73
2024/01/04 11:05:05;;;;;;;3.10;1.05;;;;;;;10.55;69.90;100347.66;5018854;28;20069;-74
2024/01/04 11:07:35;;;;;;;1.58;1.00;;;;;;;10.52;69.89;100340.06;5020699;28;20095;-75
2024/01/04 11:10:05;;;;;;;1.33;1.02;;;;;;;10.50;70.16;100342.16;5026181;28;20091;-75
2024/01/04 11:12:35;;;;;;;1.90;0.88;;;;;;;10.46;70.19;100346.38;5016446;28;20075;-74
2024/01/04 11:15:03;;;;;;;2.65;0.82;;;;;;;10.42;70.30;100348.72;5017818;28;20053;-74
2024/01/04 11:17:48;;;;;;;1.95;0.90;;;;;;;10.38;70.43;100361.00;5019800;28;20110;-74
2024/01/04 11:20:21;;;;;;;0.93;0.70;;;;;;;10.36;70.63;100358.53;5016986;28;20494;-73
2024/01/04 11:23:14;;;;;;;1.52;0.90;;;;;;;10.33;70.71;100350.13;5022987;28;20106;-74
2024/01/04 11:26:15;;;;;;;1.73;0.90;;;;;;;10.43;70.33;100353.03;5016654;28;20046;-74
2024/01/04 11:28:44;;;;;;;1.80;0.80;;;;;;;10.58;70.00;100356.06;5012990;28;20110;-68
2024/01/04 11:31:13;;;;;;;1.58;0.80;;;;;;;10.80;69.47;100352.78;5018164;28;20076;-71
2024/01/04 11:33:42;;;;;;;2.15;1.05;;;;;;;10.94;68.88;100357.69;5034684;28;20078;-73
2024/01/04 11:36:16;;;;;;;2.55;1.15;;;;;;;11.11;68.07;100338.13;5045828;28;20061;-68
2024/01/04 11:38:46;;;;;;;4.40;1.30;;;;;;;11.25;68.04;100352.94;5046300;28;20050;-75